sensor_id;sensor_type;location;lat;lon;timestamp;pressure;altitude;pressure_sealevel;temperature;humidity
33496;BME280;19836;55.812;37.560;2024-02-21T00:00:03;100478.66;;;-4.95;65.87
33496;BME280;19836;55.812;37.560;2024-02-21T00:02:30;100481.06;;;-4.99;66.25
33496;BME280;19836;55.812;37.560;2024-02-21T00:04:56;100482.75;;;-5.01;65.89
33496;BME280;19836;55.812;37.560;2024-02-21T00:07:22;100483.69;;;-4.99;66.17
33496;BME280;19836;55.812;37.560;2024-02-21T00:09:48;100478.31;;;-5.02;66.20
33496;BME280;19836;55.812;37.560;2024-02-21T00:12:15;100473.16;;;-5.01;65.77
33496;BME280;19836;55.812;37.560;2024-02-21T00:14:41;100470.63;;;-4.99;65.87
33496;BME280;19836;55.812;37.560;2024-02-21T00:17:07;100464.56;;;-4.98;66.19
33496;BME280;19836;55.812;37.560;2024-02-21T00:19:34;100469.63;;;-5.03;66.58
33496;BME280;19836;55.812;37.560;2024-02-21T00:22:00;100465.22;;;-5.03;66.10
33496;BME280;19836;55.812;37.560;2024-02-21T00:24:26;100466.94;;;-5.04;66.46
33496;BME280;19836;55.812;37.560;2024-02-21T00:26:53;100466.94;;;-5.04;66.16
33496;BME280;19836;55.812;37.560;2024-02-21T00:29:19;100464.50;;;-5.00;66.21
33496;BME280;19836;55.812;37.560;2024-02-21T00:31:45;100463.03;;;-4.93;66.44
33496;BME280;19836;55.812;37.560;2024-02-21T00:34:11;100466.56;;;-4.93;65.83
33496;BME280;19836;55.812;37.560;2024-02-21T00:36:38;100461.41;;;-4.91;65.96
33496;BME280;19836;55.812;37.560;2024-02-21T00:39:05;100455.59;;;-4.84;66.40
33496;BME280;19836;55.812;37.560;2024-02-21T00:41:32;100449.75;;;-4.78;66.09
33496;BME280;19836;55.812;37.560;2024-02-21T00:43:57;100449.91;;;-4.74;65.84
33496;BME280;19836;55.812;37.560;2024-02-21T00:46:23;100444.69;;;-4.74;65.80
33496;BME280;19836;55.812;37.560;2024-02-21T00:48:49;100440.06;;;-4.81;65.95
33496;BME280;19836;55.812;37.560;2024-02-21T00:51:16;100443.38;;;-4.85;66.17
33496;BME280;19836;55.812;37.560;2024-02-21T00:53:42;100446.81;;;-4.86;66.27
33496;BME280;19836;55.812;37.560;2024-02-21T00:56:08;100439.09;;;-4.83;66.24
33496;BME280;19836;55.812;37.560;2024-02-21T00:58:34;100440.41;;;-4.72;65.74
33496;BME280;19836;55.812;37.560;2024-02-21T01:01:01;100424.25;;;-4.62;65.67
33496;BME280;19836;55.812;37.560;2024-02-21T01:03:27;100422.81;;;-4.56;66.17
33496;BME280;19836;55.812;37.560;2024-02-21T01:05:53;100423.69;;;-4.55;65.65
33496;BME280;19836;55.812;37.560;2024-02-21T01:08:19;100419.34;;;-4.55;65.43
33496;BME280;19836;55.812;37.560;2024-02-21T01:10:44;100414.19;;;-4.53;65.36
33496;BME280;19836;55.812;37.560;2024-02-21T01:13:10;100410.81;;;-4.51;65.82
33496;BME280;19836;55.812;37.560;2024-02-21T01:15:37;100414.38;;;-4.48;65.23
33496;BME280;19836;55.812;37.560;2024-02-21T01:18:03;100408.38;;;-4.46;65.29
33496;BME280;19836;55.812;37.560;2024-02-21T01:20:30;100416.47;;;-4.40;65.15
33496;BME280;19836;55.812;37.560;2024-02-21T01:22:56;100410.16;;;-4.45;65.35
33496;BME280;19836;55.812;37.560;2024-02-21T01:25:23;100407.53;;;-4.45;64.77
33496;BME280;19836;55.812;37.560;2024-02-21T01:27:49;100404.72;;;-4.50;65.02
33496;BME280;19836;55.812;37.560;2024-02-21T01:30:15;100407.47;;;-4.47;64.90
33496;BME280;19836;55.812;37.560;2024-02-21T01:32:41;100400.47;;;-4.47;65.11
33496;BME280;19836;55.812;37.560;2024-02-21T01:35:07;100406.56;;;-4.47;64.87
33496;BME280;19836;55.812;37.560;2024-02-21T01:37:33;100394.34;;;-4.48;64.68
33496;BME280;19836;55.812;37.560;2024-02-21T01:39:59;100396.09;;;-4.48;65.02
33496;BME280;19836;55.812;37.560;2024-02-21T01:42:25;100397.88;;;-4.47;65.05
33496;BME280;19836;55.812;37.560;2024-02-21T01:44:51;100397.19;;;-4.42;65.45
33496;BME280;19836;55.812;37.560;2024-02-21T01:47:17;100389.72;;;-4.33;64.97
33496;BME280;19836;55.812;37.560;2024-02-21T01:49:43;100392.44;;;-4.30;65.33
33496;BME280;19836;55.812;37.560;2024-02-21T01:52:10;100382.84;;;-4.31;64.80
33496;BME280;19836;55.812;37.560;2024-02-21T01:54:41;100383.00;;;-4.27;65.48
33496;BME280;19836;55.812;37.560;2024-02-21T01:57:31;100380.53;;;-4.22;64.57
33496;BME280;19836;55.812;37.560;2024-02-21T02:00:03;100380.81;;;-4.15;64.84
33496;BME280;19836;55.812;37.560;2024-02-21T02:02:38;100386.34;;;-4.07;64.97
33496;BME280;19836;55.812;37.560;2024-02-21T02:05:04;100387.31;;;-4.05;65.26
33496;BME280;19836;55.812;37.560;2024-02-21T02:07:32;100372.47;;;-4.06;65.06
33496;BME280;19836;55.812;37.560;2024-02-21T02:09:58;100379.47;;;-4.05;65.01
33496;BME280;19836;55.812;37.560;2024-02-21T02:12:29;100383.03;;;-4.03;64.63
33496;BME280;19836;55.812;37.560;2024-02-21T02:15:00;100380.19;;;-4.09;65.00
33496;BME280;19836;55.812;37.560;2024-02-21T02:17:29;100373.25;;;-4.08;65.14
33496;BME280;19836;55.812;37.560;2024-02-21T02:19:55;100370.78;;;-4.04;64.81
33496;BME280;19836;55.812;37.560;2024-02-21T02:22:23;100377.00;;;-4.01;64.85
33496;BME280;19836;55.812;37.560;2024-02-21T02:24:53;100375.38;;;-3.97;64.60
33496;BME280;19836;55.812;37.560;2024-02-21T02:27:25;100375.16;;;-4.03;65.02
33496;BME280;19836;55.812;37.560;2024-02-21T02:29:51;100372.41;;;-4.07;64.58
33496;BME280;19836;55.812;37.560;2024-02-21T02:32:18;100374.09;;;-4.08;64.51
33496;BME280;19836;55.812;37.560;2024-02-21T02:34:45;100373.34;;;-4.06;64.69
33496;BME280;19836;55.812;37.560;2024-02-21T02:37:13;100378.00;;;-3.97;64.41
33496;BME280;19836;55.812;37.560;2024-02-21T02:39:39;100372.91;;;-3.94;64.97
33496;BME280;19836;55.812;37.560;2024-02-21T02:42:05;100366.72;;;-3.96;64.77
33496;BME280;19836;55.812;37.560;2024-02-21T02:44:31;100369.44;;;-3.93;64.43
33496;BME280;19836;55.812;37.560;2024-02-21T02:46:57;100365.38;;;-3.85;64.90
33496;BME280;19836;55.812;37.560;2024-02-21T02:49:23;100367.28;;;-3.81;65.05
33496;BME280;19836;55.812;37.560;2024-02-21T02:51:48;100376.19;;;-3.76;64.71
33496;BME280;19836;55.812;37.560;2024-02-21T02:54:14;100374.63;;;-3.71;64.63
33496;BME280;19836;55.812;37.560;2024-02-21T02:56:40;100375.50;;;-3.71;64.98
33496;BME280;19836;55.812;37.560;2024-02-21T02:59:06;100368.66;;;-3.67;65.25
33496;BME280;19836;55.812;37.560;2024-02-21T03:01:35;100373.06;;;-3.66;64.42
33496;BME280;19836;55.812;37.560;2024-02-21T03:04:01;100366.03;;;-3.67;65.18
33496;BME280;19836;55.812;37.560;2024-02-21T03:06:27;100366.16;;;-3.64;64.78
33496;BME280;19836;55.812;37.560;2024-02-21T03:08:53;100380.16;;;-3.63;64.54
33496;BME280;19836;55.812;37.560;2024-02-21T03:11:20;100374.06;;;-3.63;64.68
33496;BME280;19836;55.812;37.560;2024-02-21T03:13:51;100378.41;;;-3.63;64.64
33496;BME280;19836;55.812;37.560;2024-02-21T03:16:42;100369.63;;;-3.65;64.56
33496;BME280;19836;55.812;37.560;2024-02-21T03:19:08;100374.72;;;-3.68;64.64
33496;BME280;19836;55.812;37.560;2024-02-21T03:21:36;100366.28;;;-3.61;64.94
33496;BME280;19836;55.812;37.560;2024-02-21T03:24:02;100368.19;;;-3.56;64.43
33496;BME280;19836;55.812;37.560;2024-02-21T03:26:28;100369.16;;;-3.53;64.71
33496;BME280;19836;55.812;37.560;2024-02-21T03:28:54;100370.16;;;-3.50;65.03
33496;BME280;19836;55.812;37.560;2024-02-21T03:31:20;100370.25;;;-3.47;65.06
33496;BME280;19836;55.812;37.560;2024-02-21T03:33:46;100365.91;;;-3.47;64.41
33496;BME280;19836;55.812;37.560;2024-02-21T03:36:15;100363.34;;;-3.45;64.69
33496;BME280;19836;55.812;37.560;2024-02-21T03:38:41;100359.81;;;-3.46;64.31
33496;BME280;19836;55.812;37.560;2024-02-21T03:41:07;100360.66;;;-3.47;64.77
33496;BME280;19836;55.812;37.560;2024-02-21T03:43:33;100358.06;;;-3.47;64.43
33496;BME280;19836;55.812;37.560;2024-02-21T03:45:59;100359.78;;;-3.47;64.93
33496;BME280;19836;55.812;37.560;2024-02-21T03:48:25;100371.16;;;-3.47;64.63
33496;BME280;19836;55.812;37.560;2024-02-21T03:50:51;100358.16;;;-3.43;64.39
33496;BME280;19836;55.812;37.560;2024-02-21T03:53:17;100353.97;;;-3.38;64.91
33496;BME280;19836;55.812;37.560;2024-02-21T03:55:43;100363.50;;;-3.41;64.77
33496;BME280;19836;55.812;37.560;2024-02-21T03:58:08;100356.44;;;-3.43;64.68
33496;BME280;19836;55.812;37.560;2024-02-21T04:00:34;100361.78;;;-3.40;64.41
33496;BME280;19836;55.812;37.560;2024-02-21T04:03:01;100358.44;;;-3.36;64.44
33496;BME280;19836;55.812;37.560;2024-02-21T04:05:27;100365.44;;;-3.35;65.06
33496;BME280;19836;55.812;37.560;2024-02-21T04:07:54;100366.31;;;-3.35;64.38
33496;BME280;19836;55.812;37.560;2024-02-21T04:10:20;100358.63;;;-3.30;64.94
33496;BME280;19836;55.812;37.560;2024-02-21T04:12:46;100359.69;;;-3.25;64.58
33496;BME280;19836;55.812;37.560;2024-02-21T04:15:12;100370.16;;;-3.25;64.45
33496;BME280;19836;55.812;37.560;2024-02-21T04:17:38;100365.78;;;-3.25;64.73
33496;BME280;19836;55.812;37.560;2024-02-21T04:20:05;100357.16;;;-3.22;64.86
33496;BME280;19836;55.812;37.560;2024-02-21T04:22:31;100364.88;;;-3.27;64.85
33496;BME280;19836;55.812;37.560;2024-02-21T04:24:59;100369.19;;;-3.27;65.00
33496;BME280;19836;55.812;37.560;2024-02-21T04:27:26;100368.53;;;-3.22;64.68
33496;BME280;19836;55.812;37.560;2024-02-21T04:29:52;100360.88;;;-3.16;64.66
33496;BME280;19836;55.812;37.560;2024-02-21T04:32:18;100366.28;;;-3.11;64.70
33496;BME280;19836;55.812;37.560;2024-02-21T04:34:44;100357.56;;;-3.10;64.68
33496;BME280;19836;55.812;37.560;2024-02-21T04:37:10;100355.81;;;-3.11;64.61
33496;BME280;19836;55.812;37.560;2024-02-21T04:39:36;100364.66;;;-3.08;65.17
33496;BME280;19836;55.812;37.560;2024-02-21T04:42:02;100355.09;;;-3.06;64.84
33496;BME280;19836;55.812;37.560;2024-02-21T04:44:28;100358.69;;;-3.03;64.60
33496;BME280;19836;55.812;37.560;2024-02-21T04:46:54;100363.91;;;-3.03;64.90
33496;BME280;19836;55.812;37.560;2024-02-21T04:49:20;100359.47;;;-3.06;64.37
33496;BME280;19836;55.812;37.560;2024-02-21T04:51:46;100366.38;;;-3.08;64.24
33496;BME280;19836;55.812;37.560;2024-02-21T04:54:12;100362.69;;;-3.13;64.40
33496;BME280;19836;55.812;37.560;2024-02-21T04:56:37;100362.63;;;-3.16;64.36
33496;BME280;19836;55.812;37.560;2024-02-21T04:59:03;100361.03;;;-3.11;64.69
33496;BME280;19836;55.812;37.560;2024-02-21T05:01:29;100356.00;;;-3.05;64.48
33496;BME280;19836;55.812;37.560;2024-02-21T05:03:56;100356.19;;;-2.99;64.51
33496;BME280;19836;55.812;37.560;2024-02-21T05:06:22;100358.16;;;-2.92;64.88
33496;BME280;19836;55.812;37.560;2024-02-21T05:08:48;100354.13;;;-2.83;64.24
33496;BME280;19836;55.812;37.560;2024-02-21T05:11:15;100354.25;;;-2.78;64.49
33496;BME280;19836;55.812;37.560;2024-02-21T05:13:41;100368.09;;;-2.82;64.20
33496;BME280;19836;55.812;37.560;2024-02-21T05:16:07;100358.38;;;-2.86;64.69
33496;BME280;19836;55.812;37.560;2024-02-21T05:18:33;100356.69;;;-2.84;64.69
33496;BME280;19836;55.812;37.560;2024-02-21T05:21:03;100365.59;;;-2.79;64.40
33496;BME280;19836;55.812;37.560;2024-02-21T05:23:29;100363.28;;;-2.70;64.36
33496;BME280;19836;55.812;37.560;2024-02-21T05:25:55;100359.91;;;-2.66;64.75
33496;BME280;19836;55.812;37.560;2024-02-21T05:28:21;100362.56;;;-2.65;64.21
33496;BME280;19836;55.812;37.560;2024-02-21T05:30:47;100361.75;;;-2.63;64.29
33496;BME280;19836;55.812;37.560;2024-02-21T05:33:13;100360.00;;;-2.63;64.58
33496;BME280;19836;55.812;37.560;2024-02-21T05:35:47;100360.16;;;-2.58;64.40
33496;BME280;19836;55.812;37.560;2024-02-21T05:38:16;100355.91;;;-2.55;64.67
33496;BME280;19836;55.812;37.560;2024-02-21T05:40:44;100354.31;;;-2.50;64.59
33496;BME280;19836;55.812;37.560;2024-02-21T05:43:10;100354.31;;;-2.49;64.11
33496;BME280;19836;55.812;37.560;2024-02-21T05:45:37;100354.38;;;-2.47;64.22
33496;BME280;19836;55.812;37.560;2024-02-21T05:48:04;100354.47;;;-2.44;64.37
33496;BME280;19836;55.812;37.560;2024-02-21T05:50:30;100357.22;;;-2.40;64.39
33496;BME280;19836;55.812;37.560;2024-02-21T05:53:21;100354.84;;;-2.32;64.19
33496;BME280;19836;55.812;37.560;2024-02-21T05:56:03;100357.41;;;-2.34;64.18
33496;BME280;19836;55.812;37.560;2024-02-21T05:58:30;100358.19;;;-2.38;63.81
33496;BME280;19836;55.812;37.560;2024-02-21T06:00:57;100356.44;;;-2.37;64.44
33496;BME280;19836;55.812;37.560;2024-02-21T06:03:23;100362.81;;;-2.29;63.81
33496;BME280;19836;55.812;37.560;2024-02-21T06:05:49;100356.94;;;-2.21;64.08
33496;BME280;19836;55.812;37.560;2024-02-21T06:08:15;100357.94;;;-2.17;63.77
33496;BME280;19836;55.812;37.560;2024-02-21T06:10:41;100360.56;;;-2.17;63.59
33496;BME280;19836;55.812;37.560;2024-02-21T06:13:07;100357.94;;;-2.17;63.84
33496;BME280;19836;55.812;37.560;2024-02-21T06:15:35;100355.41;;;-2.14;64.07
33496;BME280;19836;55.812;37.560;2024-02-21T06:18:02;100359.13;;;-2.06;63.80
33496;BME280;19836;55.812;37.560;2024-02-21T06:20:28;100352.38;;;-1.98;64.23
33496;BME280;19836;55.812;37.560;2024-02-21T06:22:54;100353.50;;;-1.89;63.59
33496;BME280;19836;55.812;37.560;2024-02-21T06:25:21;100340.44;;;-1.87;63.65
33496;BME280;19836;55.812;37.560;2024-02-21T06:27:47;100354.41;;;-1.88;63.68
33496;BME280;19836;55.812;37.560;2024-02-21T06:30:13;100358.88;;;-1.86;63.44
33496;BME280;19836;55.812;37.560;2024-02-21T06:32:47;100351.91;;;-1.84;63.38
33496;BME280;19836;55.812;37.560;2024-02-21T06:35:36;100356.56;;;-1.74;63.45
33496;BME280;19836;55.812;37.560;2024-02-21T06:38:12;100362.13;;;-1.63;63.09
33496;BME280;19836;55.812;37.560;2024-02-21T06:43:36;100353.75;;;-1.50;63.04
33496;BME280;19836;55.812;37.560;2024-02-21T06:52:00;100358.06;;;-1.52;62.66
33496;BME280;19836;55.812;37.560;2024-02-21T06:54:41;100339.41;;;-1.61;62.55
33496;BME280;19836;55.812;37.560;2024-02-21T06:57:07;100352.50;;;-1.64;62.69
33496;BME280;19836;55.812;37.560;2024-02-21T06:59:36;100346.28;;;-1.66;62.49
33496;BME280;19836;55.812;37.560;2024-02-21T07:02:05;100347.66;;;-1.49;62.46
33496;BME280;19836;55.812;37.560;2024-02-21T07:04:32;100346.19;;;-1.38;62.47
33496;BME280;19836;55.812;37.560;2024-02-21T07:06:59;100344.66;;;-1.30;62.28
33496;BME280;19836;55.812;37.560;2024-02-21T07:09:28;100335.97;;;-1.27;62.44
33496;BME280;19836;55.812;37.560;2024-02-21T07:11:58;100333.31;;;-1.29;62.05
33496;BME280;19836;55.812;37.560;2024-02-21T07:14:28;100342.34;;;-1.18;62.32
33496;BME280;19836;55.812;37.560;2024-02-21T07:16:59;100346.28;;;-1.01;61.82
33496;BME280;19836;55.812;37.560;2024-02-21T07:19:25;100337.66;;;-0.96;61.64
33496;BME280;19836;55.812;37.560;2024-02-21T07:21:52;100327.22;;;-0.93;61.52
33496;BME280;19836;55.812;37.560;2024-02-21T07:24:26;100329.81;;;-0.94;61.87
33496;BME280;19836;55.812;37.560;2024-02-21T07:27:01;100329.88;;;-0.91;61.66
33496;BME280;19836;55.812;37.560;2024-02-21T07:29:38;100330.06;;;-0.85;61.88
33496;BME280;19836;55.812;37.560;2024-02-21T07:32:07;100333.03;;;-0.70;61.54
33496;BME280;19836;55.812;37.560;2024-02-21T07:34:40;100335.81;;;-0.64;61.49
33496;BME280;19836;55.812;37.560;2024-02-21T07:37:06;100330.41;;;-0.70;61.16
33496;BME280;19836;55.812;37.560;2024-02-21T07:39:36;100331.41;;;-0.65;61.25
33496;BME280;19836;55.812;37.560;2024-02-21T07:42:03;100326.56;;;-0.47;61.17
33496;BME280;19836;55.812;37.560;2024-02-21T07:44:32;100336.41;;;-0.39;60.54
33496;BME280;19836;55.812;37.560;2024-02-21T07:47:03;100328.66;;;-0.31;60.94
33496;BME280;19836;55.812;37.560;2024-02-21T07:49:32;100319.84;;;-0.33;60.58
33496;BME280;19836;55.812;37.560;2024-02-21T07:52:10;100326.63;;;-0.44;60.53
33496;BME280;19836;55.812;37.560;2024-02-21T07:54:39;100324.78;;;-0.48;60.57
33496;BME280;19836;55.812;37.560;2024-02-21T07:57:06;100332.69;;;-0.48;60.56
33496;BME280;19836;55.812;37.560;2024-02-21T07:59:33;100327.38;;;-0.50;60.66
33496;BME280;19836;55.812;37.560;2024-02-21T08:02:14;100319.25;;;-0.60;60.29
33496;BME280;19836;55.812;37.560;2024-02-21T08:04:43;100312.81;;;-0.73;60.51
33496;BME280;19836;55.812;37.560;2024-02-21T08:07:10;100315.03;;;-0.89;60.52
33496;BME280;19836;55.812;37.560;2024-02-21T08:09:39;100307.78;;;-0.99;60.65
33496;BME280;19836;55.812;37.560;2024-02-21T08:12:06;100312.09;;;-1.02;61.04
33496;BME280;19836;55.812;37.560;2024-02-21T08:14:33;100301.66;;;-0.98;60.88
33496;BME280;19836;55.812;37.560;2024-02-21T08:17:00;100306.06;;;-0.97;61.20
33496;BME280;19836;55.812;37.560;2024-02-21T08:19:27;100309.78;;;-0.89;60.96
33496;BME280;19836;55.812;37.560;2024-02-21T08:21:53;100302.16;;;-0.77;60.91
33496;BME280;19836;55.812;37.560;2024-02-21T08:24:19;100312.19;;;-0.63;61.03
33496;BME280;19836;55.812;37.560;2024-02-21T08:26:48;100314.34;;;-0.45;60.41
33496;BME280;19836;55.812;37.560;2024-02-21T08:29:15;100307.69;;;-0.28;60.96
33496;BME280;19836;55.812;37.560;2024-02-21T08:31:41;100318.63;;;-0.10;60.52
33496;BME280;19836;55.812;37.560;2024-02-21T08:34:07;100319.69;;;-0.01;59.71
33496;BME280;19836;55.812;37.560;2024-02-21T08:36:36;100316.44;;;0.12;59.91
33496;BME280;19836;55.812;37.560;2024-02-21T08:39:03;100311.31;;;0.18;59.46
33496;BME280;19836;55.812;37.560;2024-02-21T08:41:31;100309.78;;;0.29;59.56
33496;BME280;19836;55.812;37.560;2024-02-21T08:43:57;100305.59;;;0.40;59.36
33496;BME280;19836;55.812;37.560;2024-02-21T08:46:24;100304.97;;;0.53;59.08
33496;BME280;19836;55.812;37.560;2024-02-21T08:48:51;100300.81;;;0.66;58.83
33496;BME280;19836;55.812;37.560;2024-02-21T08:51:18;100291.28;;;0.75;58.52
33496;BME280;19836;55.812;37.560;2024-02-21T08:53:48;100294.75;;;0.73;58.33
33496;BME280;19836;55.812;37.560;2024-02-21T08:56:15;100293.22;;;0.85;58.30
33496;BME280;19836;55.812;37.560;2024-02-21T08:58:42;100287.53;;;1.15;58.19
33496;BME280;19836;55.812;37.560;2024-02-21T09:01:11;100297.31;;;1.20;57.52
33496;BME280;19836;55.812;37.560;2024-02-21T09:03:38;100286.53;;;1.05;57.37
33496;BME280;19836;55.812;37.560;2024-02-21T09:06:07;100292.72;;;1.06;57.42
33496;BME280;19836;55.812;37.560;2024-02-21T09:08:36;100292.75;;;1.09;57.36
33496;BME280;19836;55.812;37.560;2024-02-21T09:11:02;100285.63;;;1.05;56.78
33496;BME280;19836;55.812;37.560;2024-02-21T09:13:30;100284.53;;;0.92;57.05
33496;BME280;19836;55.812;37.560;2024-02-21T09:15:56;100286.34;;;0.95;57.10
33496;BME280;19836;55.812;37.560;2024-02-21T09:18:26;100286.44;;;0.99;56.96
33496;BME280;19836;55.812;37.560;2024-02-21T09:20:52;100287.53;;;1.15;56.87
33496;BME280;19836;55.812;37.560;2024-02-21T09:23:19;100282.56;;;1.33;57.10
33496;BME280;19836;55.812;37.560;2024-02-21T09:25:45;100280.97;;;1.44;56.38
33496;BME280;19836;55.812;37.560;2024-02-21T09:28:12;100270.34;;;1.39;56.55
33496;BME280;19836;55.812;37.560;2024-02-21T09:30:39;100282.50;;;1.30;56.17
33496;BME280;19836;55.812;37.560;2024-02-21T09:33:06;100270.25;;;1.35;55.85
33496;BME280;19836;55.812;37.560;2024-02-21T09:35:37;100281.91;;;1.46;56.21
33496;BME280;19836;55.812;37.560;2024-02-21T09:38:04;100278.50;;;1.54;56.02
33496;BME280;19836;55.812;37.560;2024-02-21T09:40:30;100283.00;;;1.63;55.68
33496;BME280;19836;55.812;37.560;2024-02-21T09:43:02;100274.34;;;1.73;55.54
33496;BME280;19836;55.812;37.560;2024-02-21T09:45:33;100276.97;;;1.71;55.00
33496;BME280;19836;55.812;37.560;2024-02-21T09:50:40;100259.59;;;1.90;55.00
33496;BME280;19836;55.812;37.560;2024-02-21T09:53:18;100255.41;;;2.07;55.18
33496;BME280;19836;55.812;37.560;2024-02-21T09:55:46;100259.94;;;2.18;54.64
33496;BME280;19836;55.812;37.560;2024-02-21T09:58:17;100258.31;;;2.29;54.29
33496;BME280;19836;55.812;37.560;2024-02-21T10:00:44;100254.69;;;2.21;54.21
33496;BME280;19836;55.812;37.560;2024-02-21T10:03:10;100264.22;;;2.09;53.82
33496;BME280;19836;55.812;37.560;2024-02-21T10:05:37;100254.44;;;2.00;54.17
33496;BME280;19836;55.812;37.560;2024-02-21T10:08:15;100255.34;;;2.04;53.99
33496;BME280;19836;55.812;37.560;2024-02-21T10:10:45;100269.13;;;1.76;54.00
33496;BME280;19836;55.812;37.560;2024-02-21T10:13:26;100267.97;;;1.56;54.29
33496;BME280;19836;55.812;37.560;2024-02-21T10:16:04;100264.25;;;1.43;54.26
33496;BME280;19836;55.812;37.560;2024-02-21T10:18:31;100254.66;;;1.50;54.32
33496;BME280;19836;55.812;37.560;2024-02-21T10:23:27;100261.75;;;1.54;54.36
33496;BME280;19836;55.812;37.560;2024-02-21T10:25:54;100248.44;;;1.46;53.85
33496;BME280;19836;55.812;37.560;2024-02-21T10:28:20;100260.69;;;1.41;54.11
33496;BME280;19836;55.812;37.560;2024-02-21T10:30:55;100254.56;;;1.44;54.43
33496;BME280;19836;55.812;37.560;2024-02-21T10:33:22;100254.72;;;1.54;54.50
33496;BME280;19836;55.812;37.560;2024-02-21T10:35:51;100247.56;;;1.46;54.59
33496;BME280;19836;55.812;37.560;2024-02-21T10:38:20;100257.16;;;1.39;54.39
33496;BME280;19836;55.812;37.560;2024-02-21T10:40:47;100245.75;;;1.42;54.17
33496;BME280;19836;55.812;37.560;2024-02-21T10:43:15;100243.13;;;1.43;54.22
33496;BME280;19836;55.812;37.560;2024-02-21T10:45:44;100242.44;;;1.58;54.38
33496;BME280;19836;55.812;37.560;2024-02-21T10:48:14;100246.84;;;1.56;54.30
33496;BME280;19836;55.812;37.560;2024-02-21T10:50:47;100244.00;;;1.44;54.25
33496;BME280;19836;55.812;37.560;2024-02-21T10:56:20;100248.28;;;1.34;54.49
33496;BME280;19836;55.812;37.560;2024-02-21T10:58:51;100251.69;;;1.26;54.59
33496;BME280;19836;55.812;37.560;2024-02-21T11:01:18;100240.09;;;1.16;54.79
33496;BME280;19836;55.812;37.560;2024-02-21T11:03:46;100238.50;;;1.26;54.98
33496;BME280;19836;55.812;37.560;2024-02-21T11:06:17;100239.34;;;1.26;54.90
33496;BME280;19836;55.812;37.560;2024-02-21T11:08:44;100240.91;;;1.11;54.68
33496;BME280;19836;55.812;37.560;2024-02-21T11:11:13;100236.31;;;0.99;54.72
33496;BME280;19836;55.812;37.560;2024-02-21T11:13:44;100236.09;;;0.86;55.09
33496;BME280;19836;55.812;37.560;2024-02-21T11:16:21;100223.75;;;0.85;55.00
33496;BME280;19836;55.812;37.560;2024-02-21T11:18:48;100229.78;;;0.76;55.34
33496;BME280;19836;55.812;37.560;2024-02-21T11:21:15;100220.25;;;0.84;55.67
33496;BME280;19836;55.812;37.560;2024-02-21T11:23:42;100218.59;;;0.91;55.45
33496;BME280;19836;55.812;37.560;2024-02-21T11:26:19;100215.19;;;0.98;55.66
33496;BME280;19836;55.812;37.560;2024-02-21T11:28:56;100213.50;;;1.03;55.48
33496;BME280;19836;55.812;37.560;2024-02-21T11:31:23;100212.59;;;1.01;55.28
33496;BME280;19836;55.812;37.560;2024-02-21T11:33:51;100214.31;;;0.99;55.74
33496;BME280;19836;55.812;37.560;2024-02-21T11:36:27;100211.53;;;0.90;55.81
33496;BME280;19836;55.812;37.560;2024-02-21T11:38:56;100202.81;;;0.94;55.51
33496;BME280;19836;55.812;37.560;2024-02-21T11:41:30;100205.53;;;1.00;55.55
33496;BME280;19836;55.812;37.560;2024-02-21T11:43:56;100213.25;;;0.88;55.29
33496;BME280;19836;55.812;37.560;2024-02-21T11:46:23;100197.91;;;0.63;55.55
33496;BME280;19836;55.812;37.560;2024-02-21T11:48:52;100203.09;;;0.57;55.96
33496;BME280;19836;55.812;37.560;2024-02-21T11:51:24;100204.06;;;0.62;56.40
33496;BME280;19836;55.812;37.560;2024-02-21T11:53:52;100204.00;;;0.59;55.86
33496;BME280;19836;55.812;37.560;2024-02-21T11:56:19;100203.22;;;0.64;56.21
33496;BME280;19836;55.812;37.560;2024-02-21T11:58:47;100201.47;;;0.66;56.04
33496;BME280;19836;55.812;37.560;2024-02-21T12:01:13;100196.19;;;0.65;56.07
33496;BME280;19836;55.812;37.560;2024-02-21T12:03:40;100204.00;;;0.59;56.31
33496;BME280;19836;55.812;37.560;2024-02-21T12:06:07;100200.50;;;0.60;56.36
33496;BME280;19836;55.812;37.560;2024-02-21T12:08:41;100200.41;;;0.54;56.30
33496;BME280;19836;55.812;37.560;2024-02-21T12:11:23;100201.22;;;0.51;56.42
33496;BME280;19836;55.812;37.560;2024-02-21T12:14:01;100195.13;;;0.54;56.64
33496;BME280;19836;55.812;37.560;2024-02-21T12:16:35;100195.09;;;0.52;56.29
33496;BME280;19836;55.812;37.560;2024-02-21T12:19:03;100189.69;;;0.43;56.60
33496;BME280;19836;55.812;37.560;2024-02-21T12:21:35;100189.69;;;0.45;56.21
33496;BME280;19836;55.812;37.560;2024-02-21T12:24:12;100194.19;;;0.50;56.74
33496;BME280;19836;55.812;37.560;2024-02-21T12:26:42;100188.91;;;0.50;56.61
33496;BME280;19836;55.812;37.560;2024-02-21T12:29:09;100187.88;;;0.41;56.67
33496;BME280;19836;55.812;37.560;2024-02-21T12:31:37;100189.41;;;0.27;56.74
33496;BME280;19836;55.812;37.560;2024-02-21T12:34:03;100186.44;;;0.10;56.96
33496;BME280;19836;55.812;37.560;2024-02-21T12:36:33;100181.88;;;0.00;56.77
33496;BME280;19836;55.812;37.560;2024-02-21T12:39:03;100182.59;;;-0.08;57.05
33496;BME280;19836;55.812;37.560;2024-02-21T12:41:30;100186.13;;;-0.08;57.17
33496;BME280;19836;55.812;37.560;2024-02-21T12:43:59;100185.31;;;-0.04;57.50
33496;BME280;19836;55.812;37.560;2024-02-21T12:46:25;100182.75;;;-0.01;57.76
33496;BME280;19836;55.812;37.560;2024-02-21T12:48:52;100188.84;;;-0.03;57.63
33496;BME280;19836;55.812;37.560;2024-02-21T12:51:19;100182.63;;;-0.07;57.92
33496;BME280;19836;55.812;37.560;2024-02-21T12:53:48;100186.13;;;-0.06;57.84
33496;BME280;19836;55.812;37.560;2024-02-21T12:56:16;100188.91;;;0.00;57.85
33496;BME280;19836;55.812;37.560;2024-02-21T12:58:42;100197.72;;;0.02;57.89
33496;BME280;19836;55.812;37.560;2024-02-21T13:01:12;100186.13;;;-0.08;57.88
33496;BME280;19836;55.812;37.560;2024-02-21T13:03:38;100193.91;;;-0.12;58.15